sensor_id;sensor_type;location;lat;lon;timestamp;pressure;altitude;pressure_sealevel;temperature;humidity
20622;BME280;10470;42.670;23.354;2023-10-09T00:16:03;95346.03;;;18.77;100.00
20622;BME280;10470;42.670;23.354;2023-10-09T00:18:34;95331.16;;;18.74;100.00
20622;BME280;10470;42.670;23.354;2023-10-09T00:21:00;95341.53;;;18.80;100.00
20622;BME280;10470;42.670;23.354;2023-10-09T00:23:36;95337.63;;;18.66;100.00
20622;BME280;10470;42.670;23.354;2023-10-09T00:26:02;95343.13;;;18.66;100.00
20622;BME280;10470;42.670;23.354;2023-10-09T00:28:37;95339.81;;;18.62;100.00
20622;BME280;10470;42.670;23.354;2023-10-09T00:31:13;95342.47;;;18.50;100.00
20622;BME280;10470;42.670;23.354;2023-10-09T00:33:51;95329.66;;;18.47;100.00
20622;BME280;10470;42.670;23.354;2023-10-09T00:36:18;95330.59;;;18.44;100.00
20622;BME280;10470;42.670;23.354;2023-10-09T00:38:53;95328.81;;;18.41;100.00
20622;BME280;10470;42.670;23.354;2023-10-09T00:41:19;95329.03;;;18.38;100.00
20622;BME280;10470;42.670;23.354;2023-10-09T00:43:51;95331.84;;;18.43;100.00
20622;BME280;10470;42.670;23.354;2023-10-09T00:46:18;95331.81;;;18.17;100.00
20622;BME280;10470;42.670;23.354;2023-10-09T00:48:45;95340.31;;;18.14;100.00
20622;BME280;10470;42.670;23.354;2023-10-09T00:51:13;95339.81;;;18.15;100.00
20622;BME280;10470;42.670;23.354;2023-10-09T00:53:46;95357.91;;;18.16;100.00
20622;BME280;10470;42.670;23.354;2023-10-09T00:56:18;95356.38;;;18.15;100.00
20622;BME280;10470;42.670;23.354;2023-10-09T00:59:07;95361.94;;;18.00;100.00
20622;BME280;10470;42.670;23.354;2023-10-09T01:01:33;95362.72;;;18.01;100.00
20622;BME280;10470;42.670;23.354;2023-10-09T01:04:17;95357.34;;;17.92;100.00
20622;BME280;10470;42.670;23.354;2023-10-09T01:06:44;95361.63;;;17.93;100.00
20622;BME280;10470;42.670;23.354;2023-10-09T01:09:14;95366.22;;;17.66;100.00
20622;BME280;10470;42.670;23.354;2023-10-09T01:11:41;95373.47;;;17.63;100.00
20622;BME280;10470;42.670;23.354;2023-10-09T01:14:33;95369.50;;;17.64;100.00
20622;BME280;10470;42.670;23.354;2023-10-09T01:17:04;95366.91;;;17.61;100.00
20622;BME280;10470;42.670;23.354;2023-10-09T01:19:33;95370.78;;;17.69;100.00
20622;BME280;10470;42.670;23.354;2023-10-09T01:21:59;95375.91;;;17.41;100.00
20622;BME280;10470;42.670;23.354;2023-10-09T01:24:37;95379.50;;;17.32;100.00
20622;BME280;10470;42.670;23.354;2023-10-09T01:27:04;95390.63;;;17.38;100.00
20622;BME280;10470;42.670;23.354;2023-10-09T01:29:36;95378.31;;;17.18;100.00
20622;BME280;10470;42.670;23.354;2023-10-09T01:32:02;95373.00;;;17.15;100.00
20622;BME280;10470;42.670;23.354;2023-10-09T01:34:29;95393.50;;;17.29;100.00
20622;BME280;10470;42.670;23.354;2023-10-09T01:37:08;95399.38;;;17.07;100.00
20622;BME280;10470;42.670;23.354;2023-10-09T01:39:58;95410.41;;;17.07;100.00
20622;BME280;10470;42.670;23.354;2023-10-09T01:42:41;95400.44;;;17.09;100.00
20622;BME280;10470;42.670;23.354;2023-10-09T01:45:12;95405.47;;;16.96;100.00
20622;BME280;10470;42.670;23.354;2023-10-09T01:47:41;95415.81;;;17.01;100.00
20622;BME280;10470;42.670;23.354;2023-10-09T01:50:12;95414.00;;;16.83;100.00
20622;BME280;10470;42.670;23.354;2023-10-09T01:52:45;95420.16;;;16.78;100.00
20622;BME280;10470;42.670;23.354;2023-10-09T01:55:11;95424.97;;;16.68;100.00
20622;BME280;10470;42.670;23.354;2023-10-09T01:57:57;95421.34;;;16.62;100.00
20622;BME280;10470;42.670;23.354;2023-10-09T02:00:23;95444.91;;;16.63;100.00
20622;BME280;10470;42.670;23.354;2023-10-09T02:02:53;95450.00;;;16.70;100.00
20622;BME280;10470;42.670;23.354;2023-10-09T02:05:19;95420.94;;;16.54;100.00
20622;BME280;10470;42.670;23.354;2023-10-09T02:07:44;95433.63;;;16.37;100.00
20622;BME280;10470;42.670;23.354;2023-10-09T02:10:20;95441.94;;;16.28;100.00
20622;BME280;10470;42.670;23.354;2023-10-09T02:13:03;95467.31;;;16.23;100.00
20622;BME280;10470;42.670;23.354;2023-10-09T02:15:34;95454.03;;;16.21;100.00
20622;BME280;10470;42.670;23.354;2023-10-09T02:18:06;95468.25;;;16.44;100.00
20622;BME280;10470;42.670;23.354;2023-10-09T02:23:29;95452.97;;;16.19;100.00
20622;BME280;10470;42.670;23.354;2023-10-09T02:26:11;95479.47;;;16.07;100.00
20622;BME280;10470;42.670;23.354;2023-10-09T02:28:45;95476.31;;;15.99;100.00
20622;BME280;10470;42.670;23.354;2023-10-09T02:31:18;95473.97;;;15.83;100.00
20622;BME280;10470;42.670;23.354;2023-10-09T02:33:47;95476.00;;;15.97;100.00
20622;BME280;10470;42.670;23.354;2023-10-09T02:36:15;95479.88;;;15.90;100.00
20622;BME280;10470;42.670;23.354;2023-10-09T02:38:40;95485.84;;;15.80;100.00
20622;BME280;10470;42.670;23.354;2023-10-09T02:41:08;95479.31;;;15.77;100.00
20622;BME280;10470;42.670;23.354;2023-10-09T02:43:39;95461.78;;;15.65;100.00
20622;BME280;10470;42.670;23.354;2023-10-09T02:46:18;95460.59;;;15.57;100.00
20622;BME280;10470;42.670;23.354;2023-10-09T02:48:54;95461.22;;;15.52;100.00
20622;BME280;10470;42.670;23.354;2023-10-09T02:51:26;95474.97;;;15.43;100.00
20622;BME280;10470;42.670;23.354;2023-10-09T02:53:55;95490.56;;;15.37;100.00
20622;BME280;10470;42.670;23.354;2023-10-09T02:56:22;95491.16;;;15.41;100.00
20622;BME280;10470;42.670;23.354;2023-10-09T02:59:07;95500.03;;;15.17;100.00
20622;BME280;10470;42.670;23.354;2023-10-09T03:01:34;95495.47;;;15.23;100.00
20622;BME280;10470;42.670;23.354;2023-10-09T03:04:05;95507.22;;;15.15;100.00
20622;BME280;10470;42.670;23.354;2023-10-09T03:06:32;95498.84;;;15.09;100.00
20622;BME280;10470;42.670;23.354;2023-10-09T03:09:02;95501.28;;;15.16;100.00
20622;BME280;10470;42.670;23.354;2023-10-09T03:11:43;95499.13;;;15.02;100.00
20622;BME280;10470;42.670;23.354;2023-10-09T03:14:09;95501.88;;;15.11;100.00
20622;BME280;10470;42.670;23.354;2023-10-09T03:16:35;95507.69;;;15.13;100.00
20622;BME280;10470;42.670;23.354;2023-10-09T03:19:02;95508.31;;;15.08;100.00
20622;BME280;10470;42.670;23.354;2023-10-09T03:21:28;95512.88;;;14.93;100.00
20622;BME280;10470;42.670;23.354;2023-10-09T03:23:54;95516.09;;;15.00;100.00
20622;BME280;10470;42.670;23.354;2023-10-09T03:26:22;95518.38;;;14.93;100.00
20622;BME280;10470;42.670;23.354;2023-10-09T03:28:51;95528.13;;;14.84;100.00
20622;BME280;10470;42.670;23.354;2023-10-09T03:31:17;95538.63;;;14.86;100.00
20622;BME280;10470;42.670;23.354;2023-10-09T03:33:43;95543.84;;;14.93;100.00
20622;BME280;10470;42.670;23.354;2023-10-09T03:36:08;95541.38;;;14.86;100.00
20622;BME280;10470;42.670;23.354;2023-10-09T03:38:37;95534.69;;;14.87;100.00
20622;BME280;10470;42.670;23.354;2023-10-09T03:41:05;95538.25;;;14.47;100.00
20622;BME280;10470;42.670;23.354;2023-10-09T03:43:34;95542.72;;;14.63;100.00
20622;BME280;10470;42.670;23.354;2023-10-09T03:46:14;95539.34;;;14.50;100.00
20622;BME280;10470;42.670;23.354;2023-10-09T03:48:50;95545.78;;;14.65;100.00
20622;BME280;10470;42.670;23.354;2023-10-09T03:51:17;95541.66;;;14.60;100.00
20622;BME280;10470;42.670;23.354;2023-10-09T03:53:49;95539.47;;;14.37;100.00
20622;BME280;10470;42.670;23.354;2023-10-09T03:56:15;95536.44;;;14.35;100.00
20622;BME280;10470;42.670;23.354;2023-10-09T03:58:45;95548.03;;;14.48;100.00
20622;BME280;10470;42.670;23.354;2023-10-09T04:01:13;95549.94;;;14.29;100.00
20622;BME280;10470;42.670;23.354;2023-10-09T04:03:54;95546.13;;;14.17;100.00
20622;BME280;10470;42.670;23.354;2023-10-09T04:06:30;95551.44;;;14.21;100.00
20622;BME280;10470;42.670;23.354;2023-10-09T04:09:09;95566.38;;;14.20;100.00
20622;BME280;10470;42.670;23.354;2023-10-09T04:11:48;95560.91;;;14.20;100.00
20622;BME280;10470;42.670;23.354;2023-10-09T04:14:23;95545.31;;;13.98;100.00
20622;BME280;10470;42.670;23.354;2023-10-09T04:17:12;95547.16;;;14.11;100.00
20622;BME280;10470;42.670;23.354;2023-10-09T04:19:49;95543.16;;;13.93;100.00
20622;BME280;10470;42.670;23.354;2023-10-09T04:22:39;95533.94;;;13.78;100.00
20622;BME280;10470;42.670;23.354;2023-10-09T04:25:08;95541.19;;;14.03;100.00
20622;BME280;10470;42.670;23.354;2023-10-09T04:27:42;95549.38;;;13.94;100.00
20622;BME280;10470;42.670;23.354;2023-10-09T04:30:10;95564.69;;;13.82;100.00
20622;BME280;10470;42.670;23.354;2023-10-09T04:32:41;95565.69;;;13.97;100.00
20622;BME280;10470;42.670;23.354;2023-10-09T04:35:10;95568.34;;;13.79;100.00
20622;BME280;10470;42.670;23.354;2023-10-09T04:37:47;95569.16;;;13.89;100.00
20622;BME280;10470;42.670;23.354;2023-10-09T04:40:29;95564.25;;;13.84;100.00
20622;BME280;10470;42.670;23.354;2023-10-09T04:43:17;95554.91;;;13.72;100.00
20622;BME280;10470;42.670;23.354;2023-10-09T04:45:48;95548.81;;;13.68;100.00
20622;BME280;10470;42.670;23.354;2023-10-09T04:48:35;95533.56;;;13.67;100.00
20622;BME280;10470;42.670;23.354;2023-10-09T04:51:06;95546.09;;;13.77;100.00
20622;BME280;10470;42.670;23.354;2023-10-09T04:53:53;95559.94;;;13.73;100.00
20622;BME280;10470;42.670;23.354;2023-10-09T04:56:40;95555.22;;;13.74;100.00
20622;BME280;10470;42.670;23.354;2023-10-09T04:59:18;95563.13;;;13.72;100.00
20622;BME280;10470;42.670;23.354;2023-10-09T05:01:44;95560.25;;;13.75;100.00
20622;BME280;10470;42.670;23.354;2023-10-09T05:04:12;95563.84;;;13.63;100.00
20622;BME280;10470;42.670;23.354;2023-10-09T05:07:15;95578.34;;;13.73;100.00
20622;BME280;10470;42.670;23.354;2023-10-09T05:10:02;95578.47;;;13.69;100.00
20622;BME280;10470;42.670;23.354;2023-10-09T05:12:40;95578.94;;;13.68;100.00
20622;BME280;10470;42.670;23.354;2023-10-09T05:15:13;95586.97;;;13.62;100.00
20622;BME280;10470;42.670;23.354;2023-10-09T05:17:39;95591.88;;;13.67;100.00
20622;BME280;10470;42.670;23.354;2023-10-09T05:20:06;95598.34;;;13.83;100.00
20622;BME280;10470;42.670;23.354;2023-10-09T05:22:50;95599.16;;;13.92;100.00
20622;BME280;10470;42.670;23.354;2023-10-09T05:25:34;95605.50;;;13.80;100.00
20622;BME280;10470;42.670;23.354;2023-10-09T05:28:26;95604.13;;;13.85;100.00
20622;BME280;10470;42.670;23.354;2023-10-09T05:30:58;95611.16;;;13.86;100.00
20622;BME280;10470;42.670;23.354;2023-10-09T05:33:55;95612.22;;;13.88;100.00
20622;BME280;10470;42.670;23.354;2023-10-09T05:36:26;95610.59;;;14.00;100.00
20622;BME280;10470;42.670;23.354;2023-10-09T05:38:52;95617.13;;;13.93;100.00
20622;BME280;10470;42.670;23.354;2023-10-09T05:41:27;95632.41;;;14.04;100.00
20622;BME280;10470;42.670;23.354;2023-10-09T05:44:11;95634.16;;;13.88;100.00
20622;BME280;10470;42.670;23.354;2023-10-09T05:46:55;95636.88;;;13.88;100.00
20622;BME280;10470;42.670;23.354;2023-10-09T05:49:39;95641.00;;;13.93;100.00
20622;BME280;10470;42.670;23.354;2023-10-09T05:52:14;95636.31;;;13.93;100.00
20622;BME280;10470;42.670;23.354;2023-10-09T05:55:25;95648.97;;;14.00;100.00
20622;BME280;10470;42.670;23.354;2023-10-09T05:57:51;95641.28;;;14.17;100.00
20622;BME280;10470;42.670;23.354;2023-10-09T06:00:35;95658.75;;;14.10;100.00
20622;BME280;10470;42.670;23.354;2023-10-09T06:03:19;95666.13;;;13.91;100.00
20622;BME280;10470;42.670;23.354;2023-10-09T06:05:50;95667.75;;;14.11;100.00
20622;BME280;10470;42.670;23.354;2023-10-09T06:08:29;95662.31;;;14.20;100.00
20622;BME280;10470;42.670;23.354;2023-10-09T06:11:11;95664.00;;;14.27;100.00
20622;BME280;10470;42.670;23.354;2023-10-09T06:13:57;95666.56;;;14.12;100.00
20622;BME280;10470;42.670;23.354;2023-10-09T06:16:40;95682.31;;;14.30;100.00
20622;BME280;10470;42.670;23.354;2023-10-09T06:19:10;95683.53;;;14.29;100.00
20622;BME280;10470;42.670;23.354;2023-10-09T06:21:45;95685.00;;;14.20;100.00
20622;BME280;10470;42.670;23.354;2023-10-09T06:24:17;95681.88;;;14.31;100.00
20622;BME280;10470;42.670;23.354;2023-10-09T06:26:44;95694.97;;;14.27;100.00
20622;BME280;10470;42.670;23.354;2023-10-09T06:29:28;95687.56;;;14.46;100.00
20622;BME280;10470;42.670;23.354;2023-10-09T06:32:07;95688.59;;;14.39;100.00
20622;BME280;10470;42.670;23.354;2023-10-09T06:34:49;95689.09;;;14.47;100.00
20622;BME280;10470;42.670;23.354;2023-10-09T06:37:18;95689.72;;;14.51;100.00
20622;BME280;10470;42.670;23.354;2023-10-09T06:39:50;95701.44;;;14.74;100.00
20622;BME280;10470;42.670;23.354;2023-10-09T06:42:34;95694.91;;;14.49;100.00
20622;BME280;10470;42.670;23.354;2023-10-09T06:45:04;95691.50;;;14.67;100.00
20622;BME280;10470;42.670;23.354;2023-10-09T06:47:32;95687.75;;;14.52;100.00
20622;BME280;10470;42.670;23.354;2023-10-09T06:50:12;95696.22;;;14.67;100.00
20622;BME280;10470;42.670;23.354;2023-10-09T06:52:47;95703.28;;;14.86;100.00
20622;BME280;10470;42.670;23.354;2023-10-09T06:55:38;95703.00;;;14.93;98.98
20622;BME280;10470;42.670;23.354;2023-10-09T06:58:21;95699.09;;;15.13;94.00
20622;BME280;10470;42.670;23.354;2023-10-09T07:01:10;95697.03;;;14.85;92.11
20622;BME280;10470;42.670;23.354;2023-10-09T07:04:11;95689.16;;;15.06;88.88
20622;BME280;10470;42.670;23.354;2023-10-09T07:06:55;95705.34;;;15.13;88.61
20622;BME280;10470;42.670;23.354;2023-10-09T07:09:22;95712.59;;;14.89;84.77
20622;BME280;10470;42.670;23.354;2023-10-09T07:11:49;95700.63;;;15.14;84.71
20622;BME280;10470;42.670;23.354;2023-10-09T07:17:01;95707.22;;;15.35;83.20
20622;BME280;10470;42.670;23.354;2023-10-09T07:19:42;95699.69;;;15.17;82.28
20622;BME280;10470;42.670;23.354;2023-10-09T07:22:10;95698.03;;;15.10;81.25
20622;BME280;10470;42.670;23.354;2023-10-09T07:24:52;95705.53;;;15.28;80.03
20622;BME280;10470;42.670;23.354;2023-10-09T07:27:27;95702.81;;;15.46;79.36
20622;BME280;10470;42.670;23.354;2023-10-09T07:30:10;95712.84;;;15.40;77.30
20622;BME280;10470;42.670;23.354;2023-10-09T07:33:01;95713.63;;;15.32;75.19
20622;BME280;10470;42.670;23.354;2023-10-09T07:35:40;95705.09;;;15.39;73.95
20622;BME280;10470;42.670;23.354;2023-10-09T07:38:14;95697.78;;;15.54;73.43
20622;BME280;10470;42.670;23.354;2023-10-09T07:40:46;95699.88;;;15.41;74.11
20622;BME280;10470;42.670;23.354;2023-10-09T07:43:25;95718.97;;;15.44;73.35
20622;BME280;10470;42.670;23.354;2023-10-09T07:45:54;95710.59;;;15.39;73.81
20622;BME280;10470;42.670;23.354;2023-10-09T07:48:40;95715.59;;;15.40;71.97
20622;BME280;10470;42.670;23.354;2023-10-09T07:51:17;95715.47;;;15.53;71.09
20622;BME280;10470;42.670;23.354;2023-10-09T07:53:45;95712.44;;;15.88;69.35
20622;BME280;10470;42.670;23.354;2023-10-09T07:56:11;95707.84;;;16.03;67.35
20622;BME280;10470;42.670;23.354;2023-10-09T07:58:40;95721.88;;;16.05;66.89
20622;BME280;10470;42.670;23.354;2023-10-09T08:01:12;95729.06;;;16.03;66.44
20622;BME280;10470;42.670;23.354;2023-10-09T08:03:46;95716.81;;;15.39;66.25
20622;BME280;10470;42.670;23.354;2023-10-09T08:06:13;95729.06;;;15.84;65.08
20622;BME280;10470;42.670;23.354;2023-10-09T08:08:57;95726.44;;;15.53;63.16
20622;BME280;10470;42.670;23.354;2023-10-09T08:11:31;95718.53;;;15.64;63.72
20622;BME280;10470;42.670;23.354;2023-10-09T08:14:09;95716.69;;;15.80;62.38
20622;BME280;10470;42.670;23.354;2023-10-09T08:16:50;95715.94;;;15.88;62.45
20622;BME280;10470;42.670;23.354;2023-10-09T08:19:37;95704.19;;;15.97;62.29
20622;BME280;10470;42.670;23.354;2023-10-09T08:22:18;95709.97;;;16.08;60.69
20622;BME280;10470;42.670;23.354;2023-10-09T08:24:49;95720.28;;;16.41;60.49
20622;BME280;10470;42.670;23.354;2023-10-09T08:27:28;95703.50;;;16.30;60.83
20622;BME280;10470;42.670;23.354;2023-10-09T08:32:46;95701.19;;;16.37;60.11
20622;BME280;10470;42.670;23.354;2023-10-09T08:35:31;95691.78;;;16.11;59.81
20622;BME280;10470;42.670;23.354;2023-10-09T08:38:13;95699.09;;;16.23;60.30
20622;BME280;10470;42.670;23.354;2023-10-09T08:40:40;95689.31;;;16.22;59.75
20622;BME280;10470;42.670;23.354;2023-10-09T08:43:19;95687.84;;;15.93;59.95
20622;BME280;10470;42.670;23.354;2023-10-09T08:45:47;95692.13;;;16.04;58.76
20622;BME280;10470;42.670;23.354;2023-10-09T08:48:13;95689.47;;;16.19;59.27
20622;BME280;10470;42.670;23.354;2023-10-09T08:50:45;95679.06;;;16.23;58.32
20622;BME280;10470;42.670;23.354;2023-10-09T08:53:12;95681.38;;;16.24;58.47
20622;BME280;10470;42.670;23.354;2023-10-09T08:55:39;95685.97;;;16.18;57.46
20622;BME280;10470;42.670;23.354;2023-10-09T08:58:05;95676.69;;;16.06;57.66
20622;BME280;10470;42.670;23.354;2023-10-09T09:00:39;95672.25;;;16.51;58.09
20622;BME280;10470;42.670;23.354;2023-10-09T09:03:08;95664.06;;;16.42;57.01
20622;BME280;10470;42.670;23.354;2023-10-09T09:05:33;95664.53;;;16.74;57.19
20622;BME280;10470;42.670;23.354;2023-10-09T09:08:01;95661.38;;;16.99;57.22
20622;BME280;10470;42.670;23.354;2023-10-09T09:10:30;95673.09;;;16.76;55.87
20622;BME280;10470;42.670;23.354;2023-10-09T09:13:03;95668.69;;;17.02;54.68
20622;BME280;10470;42.670;23.354;2023-10-09T09:15:30;95681.31;;;16.85;53.86
20622;BME280;10470;42.670;23.354;2023-10-09T09:18:06;95677.47;;;16.92;53.58
20622;BME280;10470;42.670;23.354;2023-10-09T09:20:36;95672.78;;;17.07;52.40
20622;BME280;10470;42.670;23.354;2023-10-09T09:23:11;95674.56;;;16.86;51.40
20622;BME280;10470;42.670;23.354;2023-10-09T09:25:43;95676.72;;;17.15;51.56
20622;BME280;10470;42.670;23.354;2023-10-09T09:28:09;95662.00;;;17.18;51.03
20622;BME280;10470;42.670;23.354;2023-10-09T09:30:38;95666.88;;;16.99;51.10
20622;BME280;10470;42.670;23.354;2023-10-09T09:33:27;95660.50;;;17.17;51.39
20622;BME280;10470;42.670;23.354;2023-10-09T09:36:04;95656.84;;;17.50;51.46
20622;BME280;10470;42.670;23.354;2023-10-09T09:38:34;95656.06;;;17.35;50.33
20622;BME280;10470;42.670;23.354;2023-10-09T09:41:19;95642.28;;;17.35;50.37
20622;BME280;10470;42.670;23.354;2023-10-09T09:43:55;95638.56;;;17.62;50.62
20622;BME280;10470;42.670;23.354;2023-10-09T09:46:28;95651.44;;;17.56;50.25
20622;BME280;10470;42.670;23.354;2023-10-09T09:49:05;95654.59;;;17.49;49.15
20622;BME280;10470;42.670;23.354;2023-10-09T09:51:37;95648.28;;;17.48;48.17
20622;BME280;10470;42.670;23.354;2023-10-09T09:54:03;95646.81;;;17.62;48.10
20622;BME280;10470;42.670;23.354;2023-10-09T09:56:36;95634.41;;;17.81;48.11
20622;BME280;10470;42.670;23.354;2023-10-09T09:59:05;95646.44;;;17.69;48.16
20622;BME280;10470;42.670;23.354;2023-10-09T10:01:35;95640.22;;;18.13;47.67
20622;BME280;10470;42.670;23.354;2023-10-09T10:04:09;95634.13;;;17.94;46.86
20622;BME280;10470;42.670;23.354;2023-10-09T10:06:38;95627.50;;;18.01;46.81
20622;BME280;10470;42.670;23.354;2023-10-09T10:09:06;95623.00;;;18.18;47.44
20622;BME280;10470;42.670;23.354;2023-10-09T10:11:47;95618.94;;;18.14;46.33
20622;BME280;10470;42.670;23.354;2023-10-09T10:14:17;95609.19;;;18.33;45.89
20622;BME280;10470;42.670;23.354;2023-10-09T10:17:04;95605.47;;;18.71;45.89
20622;BME280;10470;42.670;23.354;2023-10-09T10:20:08;95599.31;;;18.97;45.31
20622;BME280;10470;42.670;23.354;2023-10-09T10:22:43;95595.03;;;18.61;46.75
20622;BME280;10470;42.670;23.354;2023-10-09T10:28:23;95597.88;;;19.69;45.22
20622;BME280;10470;42.670;23.354;2023-10-09T10:31:08;95582.81;;;19.23;45.70
20622;BME280;10470;42.670;23.354;2023-10-09T10:36:23;95551.03;;;18.92;44.71
20622;BME280;10470;42.670;23.354;2023-10-09T10:39:03;95554.97;;;19.06;44.41
20622;BME280;10470;42.670;23.354;2023-10-09T10:41:37;95546.81;;;19.17;44.27
20622;BME280;10470;42.670;23.354;2023-10-09T10:44:24;95552.91;;;19.74;44.59
20622;BME280;10470;42.670;23.354;2023-10-09T10:47:12;95554.13;;;20.30;44.06
20622;BME280;10470;42.670;23.354;2023-10-09T10:50:02;95539.41;;;19.81;44.43
20622;BME280;10470;42.670;23.354;2023-10-09T10:53:23;95530.59;;;20.52;43.39
20622;BME280;10470;42.670;23.354;2023-10-09T10:58:51;95538.56;;;21.53;42.22
20622;BME280;10470;42.670;23.354;2023-10-09T11:01:33;95530.53;;;21.89;41.89
20622;BME280;10470;42.670;23.354;2023-10-09T11:04:17;95526.16;;;20.60;42.46
20622;BME280;10470;42.670;23.354;2023-10-09T11:06:56;95530.78;;;21.91;42.78
20622;BME280;10470;42.670;23.354;2023-10-09T11:09:50;95526.81;;;20.98;41.61
20622;BME280;10470;42.670;23.354;2023-10-09T11:15:08;95516.63;;;21.44;42.61
20622;BME280;10470;42.670;23.354;2023-10-09T11:18:02;95507.50;;;21.32;42.26
20622;BME280;10470;42.670;23.354;2023-10-09T11:20:37;95489.63;;;21.33;42.48
20622;BME280;10470;42.670;23.354;2023-10-09T11:23:04;95492.09;;;22.60;41.40
20622;BME280;10470;42.670;23.354;2023-10-09T11:25:42;95482.72;;;22.63;41.16
20622;BME280;10470;42.670;23.354;2023-10-09T11:28:22;95475.44;;;23.54;40.34
20622;BME280;10470;42.670;23.354;2023-10-09T11:31:09;95466.69;;;23.39;40.12
20622;BME280;10470;42.670;23.354;2023-10-09T11:33:48;95467.00;;;22.77;40.58
20622;BME280;10470;42.670;23.354;2023-10-09T11:36:23;95483.63;;;21.85;40.80
20622;BME280;10470;42.670;23.354;2023-10-09T11:38:58;95478.69;;;23.23;40.45
20622;BME280;10470;42.670;23.354;2023-10-09T11:41:43;95471.59;;;23.27;39.88
20622;BME280;10470;42.670;23.354;2023-10-09T11:44:10;95474.31;;;23.33;39.21
20622;BME280;10470;42.670;23.354;2023-10-09T11:46:59;95467.69;;;22.95;38.89
20622;BME280;10470;42.670;23.354;2023-10-09T11:49:54;95459.09;;;23.40;38.79
20622;BME280;10470;42.670;23.354;2023-10-09T11:52:30;95466.06;;;23.16;38.12
20622;BME280;10470;42.670;23.354;2023-10-09T11:55:22;95456.03;;;22.38;39.37
20622;BME280;10470;42.670;23.354;2023-10-09T11:57:51;95453.50;;;23.45;38.72
20622;BME280;10470;42.670;23.354;2023-10-09T12:00:16;95445.03;;;24.66;38.23
20622;BME280;10470;42.670;23.354;2023-10-09T12:02:55;95433.06;;;24.71;37.60
20622;BME280;10470;42.670;23.354;2023-10-09T12:05:21;95426.63;;;23.89;37.91
20622;BME280;10470;42.670;23.354;2023-10-09T12:07:48;95430.94;;;23.85;38.19
20622;BME280;10470;42.670;23.354;2023-10-09T12:10:23;95419.44;;;25.05;37.39
20622;BME280;10470;42.670;23.354;2023-10-09T12:12:55;95418.00;;;25.69;36.14
20622;BME280;10470;42.670;23.354;2023-10-09T12:15:23;95411.03;;;25.43;36.93
20622;BME280;10470;42.670;23.354;2023-10-09T12:17:49;95415.53;;;25.14;36.37
20622;BME280;10470;42.670;23.354;2023-10-09T12:20:16;95418.63;;;25.30;36.26
20622;BME280;10470;42.670;23.354;2023-10-09T12:22:58;95407.25;;;26.32;35.55
20622;BME280;10470;42.670;23.354;2023-10-09T12:25:25;95406.91;;;26.49;35.61
20622;BME280;10470;42.670;23.354;2023-10-09T12:27:50;95411.72;;;26.88;34.96
20622;BME280;10470;42.670;23.354;2023-10-09T12:30:25;95409.19;;;27.66;34.57
20622;BME280;10470;42.670;23.354;2023-10-09T12:32:55;95395.88;;;28.38;33.58
20622;BME280;10470;42.670;23.354;2023-10-09T12:35:25;95402.28;;;27.88;33.06
20622;BME280;10470;42.670;23.354;2023-10-09T12:37:54;95401.63;;;29.79;32.44
20622;BME280;10470;42.670;23.354;2023-10-09T12:40:23;95393.25;;;29.12;32.07
20622;BME280;10470;42.670;23.354;2023-10-09T12:42:54;95394.06;;;29.59;32.03
20622;BME280;10470;42.670;23.354;2023-10-09T12:45:21;95391.25;;;29.44;31.97
20622;BME280;10470;42.670;23.354;2023-10-09T12:47:58;95375.38;;;27.85;31.42
20622;BME280;10470;42.670;23.354;2023-10-09T12:50:28;95383.59;;;28.85;31.52
20622;BME280;10470;42.670;23.354;2023-10-09T12:52:57;95371.94;;;29.25;31.12
20622;BME280;10470;42.670;23.354;2023-10-09T12:55:39;95380.53;;;30.50;30.11
20622;BME280;10470;42.670;23.354;2023-10-09T12:58:08;95375.84;;;27.97;30.25
20622;BME280;10470;42.670;23.354;2023-10-09T13:00:38;95360.81;;;28.96;29.04
20622;BME280;10470;42.670;23.354;2023-10-09T13:03:10;95317.41;;;28.97;30.17
20622;BME280;10470;42.670;23.354;2023-10-09T13:05:52;95369.88;;;28.66;29.59
20622;BME280;10470;42.670;23.354;2023-10-09T13:08:30;95359.63;;;28.76;29.16
20622;BME280;10470;42.670;23.354;2023-10-09T13:11:07;95346.88;;;29.57;28.65
20622;BME280;10470;42.670;23.354;2023-10-09T13:13:43;95354.34;;;31.20;28.73
20622;BME280;10470;42.670;23.354;2023-10-09T13:16:14;95349.72;;;29.80;29.50
20622;BME280;10470;42.670;23.354;2023-10-09T13:18:49;95340.09;;;30.78;29.17
20622;BME280;10470;42.670;23.354;2023-10-09T13:21:25;95338.84;;;31.62;28.28
20622;BME280;10470;42.670;23.354;2023-10-09T13:23:52;95338.03;;;30.86;29.11
20622;BME280;10470;42.670;23.354;2023-10-09T13:26:20;95334.81;;;31.72;28.19
20622;BME280;10470;42.670;23.354;2023-10-09T13:28:54;95332.00;;;31.97;27.81
20622;BME280;10470;42.670;23.354;2023-10-09T13:31:21;95333.19;;;32.91;27.78
20622;BME280;10470;42.670;23.354;2023-10-09T13:33:47;95332.13;;;30.59;27.88
20622;BME280;10470;42.670;23.354;2023-10-09T13:36:14;95330.50;;;31.71;27.23
20622;BME280;10470;42.670;23.354;2023-10-09T13:39:00;95316.66;;;31.66;26.97
20622;BME280;10470;42.670;23.354;2023-10-09T13:41:49;95331.56;;;33.15;26.47
20622;BME280;10470;42.670;23.354;2023-10-09T13:44:15;95321.22;;;32.04;26.72
20622;BME280;10470;42.670;23.354;2023-10-09T13:46:41;95319.97;;;31.72;26.43
20622;BME280;10470;42.670;23.354;2023-10-09T13:49:12;95308.13;;;28.58;27.67
20622;BME280;10470;42.670;23.354;2023-10-09T13:51:42;95316.75;;;29.35;27.89
20622;BME280;10470;42.670;23.354;2023-10-09T13:54:14;95313.19;;;29.65;28.20
20622;BME280;10470;42.670;23.354;2023-10-09T13:57:01;95304.72;;;27.79;28.42
20622;BME280;10470;42.670;23.354;2023-10-09T13:59:29;95292.53;;;27.98;28.72